createdAt,value
2023-04-05T00:00:25.146Z,-2.70
2023-04-05T00:02:52.892Z,-2.72
2023-04-05T00:05:29.379Z,-2.82
2023-04-05T00:08:00.815Z,-2.75
2023-04-05T00:10:28.732Z,-2.79
2023-04-05T00:12:55.686Z,-2.75
2023-04-05T00:15:22.654Z,-2.57
2023-04-05T00:17:49.325Z,-2.65
2023-04-05T00:20:16.151Z,-2.70
2023-04-05T00:22:46.653Z,-2.77
2023-04-05T00:25:13.352Z,-2.84
2023-04-05T00:27:39.993Z,-2.69
2023-04-05T00:30:07.351Z,-2.73
2023-04-05T00:32:34.011Z,-2.73
2023-04-05T00:35:00.894Z,-2.72
2023-04-05T00:37:27.705Z,-2.69
2023-04-05T00:39:55.146Z,-2.66
2023-04-05T00:42:21.771Z,-2.54
2023-04-05T00:44:48.912Z,-2.59
2023-04-05T00:47:15.632Z,-2.47
2023-04-05T00:49:42.303Z,-2.34
2023-04-05T00:52:08.942Z,-2.42
2023-04-05T00:54:35.837Z,-2.31
2023-04-05T00:57:02.532Z,-2.19
2023-04-05T00:59:29.344Z,-2.21
2023-04-05T01:02:01.009Z,-2.29
2023-04-05T01:04:31.002Z,-2.33
2023-04-05T01:07:19.917Z,-2.30
2023-04-05T01:09:59.886Z,-2.20
2023-04-05T01:12:34.574Z,-2.22
2023-04-05T01:15:01.419Z,-2.14
2023-04-05T01:17:36.749Z,-2.15
2023-04-05T01:20:10.778Z,-2.19
2023-04-05T01:22:54.609Z,-2.26
2023-04-05T01:25:24.198Z,-2.23
2023-04-05T01:28:28.544Z,-2.19
2023-04-05T01:31:08.194Z,-2.14
2023-04-05T01:34:07.591Z,-2.11
2023-04-05T01:36:41.164Z,-2.00
2023-04-05T01:39:09.740Z,-2.02
2023-04-05T01:41:36.367Z,-1.97
2023-04-05T01:44:03.025Z,-1.95
2023-04-05T01:46:29.685Z,-1.91
2023-04-05T01:48:56.514Z,-1.82
2023-04-05T01:51:23.170Z,-1.76
2023-04-05T01:53:49.922Z,-1.81
2023-04-05T01:56:16.563Z,-1.82
2023-04-05T01:58:43.308Z,-1.85
2023-04-05T02:01:10.060Z,-1.84
2023-04-05T02:03:36.877Z,-1.83
2023-04-05T02:06:04.215Z,-1.82
2023-04-05T02:08:30.887Z,-1.81
2023-04-05T02:10:57.595Z,-1.70
2023-04-05T02:13:25.891Z,-1.65
2023-04-05T02:15:52.606Z,-1.65
2023-04-05T02:18:22.486Z,-1.70
2023-04-05T02:20:50.788Z,-1.65
2023-04-05T02:23:21.019Z,-1.66
2023-04-05T02:25:47.691Z,-1.66
2023-04-05T02:28:14.507Z,-1.67
2023-04-05T02:30:41.380Z,-1.70
2023-04-05T02:33:10.435Z,-1.74
2023-04-05T02:35:37.118Z,-1.74
2023-04-05T02:38:04.808Z,-1.66
2023-04-05T02:40:32.154Z,-1.61
2023-04-05T02:42:59.018Z,-1.61
2023-04-05T02:45:27.892Z,-1.64
2023-04-05T02:47:55.397Z,-1.48
2023-04-05T02:50:23.427Z,-1.45
2023-04-05T02:52:50.763Z,-1.42
2023-04-05T02:55:17.490Z,-1.50
2023-04-05T02:57:46.443Z,-1.51
2023-04-05T03:00:14.068Z,-1.58
2023-04-05T03:02:40.771Z,-1.60
2023-04-05T03:05:08.082Z,-1.52
2023-04-05T03:07:35.559Z,-1.51
2023-04-05T03:10:02.747Z,-1.54
2023-04-05T03:12:29.435Z,-1.52
2023-04-05T03:14:56.108Z,-1.47
2023-04-05T03:17:22.766Z,-1.44
2023-04-05T03:19:49.401Z,-1.49
2023-04-05T03:22:16.130Z,-1.51
2023-04-05T03:24:42.810Z,-1.42
2023-04-05T03:27:09.443Z,-1.50
2023-04-05T03:29:36.165Z,-1.43
2023-04-05T03:32:02.768Z,-1.48
2023-04-05T03:34:29.414Z,-1.51
2023-04-05T03:36:56.062Z,-1.50
2023-04-05T03:39:22.720Z,-1.42
2023-04-05T03:41:49.381Z,-1.44
2023-04-05T03:44:16.177Z,-1.39
2023-04-05T03:46:43.081Z,-1.36
2023-04-05T03:49:09.745Z,-1.34
2023-04-05T03:51:36.369Z,-1.37
2023-04-05T03:54:02.973Z,-1.34
2023-04-05T03:56:29.609Z,-1.37
2023-04-05T03:58:56.312Z,-1.44
2023-04-05T04:01:22.939Z,-1.40
2023-04-05T04:03:49.574Z,-1.43
2023-04-05T04:06:18.654Z,-1.39
2023-04-05T04:08:46.036Z,-1.40
2023-04-05T04:11:12.695Z,-1.26
2023-04-05T04:13:39.373Z,-1.35
2023-04-05T04:16:06.232Z,-1.36
2023-04-05T04:18:33.075Z,-1.43
2023-04-05T04:21:06.721Z,-1.33
2023-04-05T04:23:34.433Z,-1.39
2023-04-05T04:26:01.694Z,-1.21
2023-04-05T04:28:29.328Z,-1.26
2023-04-05T04:30:56.036Z,-1.36
2023-04-05T04:33:22.769Z,-1.34
2023-04-05T04:35:49.491Z,-1.32
2023-04-05T04:38:18.729Z,-1.27
2023-04-05T04:40:50.810Z,-1.35
2023-04-05T04:43:17.774Z,-1.16
2023-04-05T04:45:52.216Z,-1.23
2023-04-05T04:48:19.010Z,-1.26
2023-04-05T04:50:47.026Z,-1.24
2023-04-05T04:53:13.807Z,-1.15
2023-04-05T04:55:43.317Z,-1.19
2023-04-05T04:58:11.631Z,-1.21
2023-04-05T05:00:44.210Z,-1.25
2023-04-05T05:03:11.701Z,-1.21
2023-04-05T05:05:45.715Z,-1.17
2023-04-05T05:08:13.232Z,-1.16
2023-04-05T05:10:40.159Z,-1.20
2023-04-05T05:13:07.016Z,-1.04
2023-04-05T05:15:33.641Z,-1.10
2023-04-05T05:18:00.578Z,-1.11
2023-04-05T05:20:28.629Z,-1.05
2023-04-05T05:22:55.707Z,-0.96
2023-04-05T05:25:22.972Z,-0.95
2023-04-05T05:27:50.996Z,-0.92
2023-04-05T05:30:18.448Z,-0.91
2023-04-05T05:32:45.237Z,-0.85
2023-04-05T05:35:11.868Z,-0.78
2023-04-05T05:37:38.590Z,-0.72
2023-04-05T05:40:05.720Z,-0.65
2023-04-05T05:42:35.975Z,-0.59
2023-04-05T05:45:04.608Z,-0.43
2023-04-05T05:47:31.334Z,-0.32
2023-04-05T05:49:58.187Z,-0.11
2023-04-05T05:52:27.290Z,-0.09
2023-04-05T05:54:54.097Z,-0.20
2023-04-05T05:57:20.897Z,-0.09
2023-04-05T05:59:47.538Z,-0.01
2023-04-05T06:02:25.110Z,0.00
2023-04-05T06:04:51.869Z,-0.10
2023-04-05T06:07:18.490Z,-0.34
2023-04-05T06:09:45.379Z,-0.27
2023-04-05T06:12:12.015Z,-0.15
2023-04-05T06:14:38.632Z,-0.05
2023-04-05T06:17:05.369Z,0.02
2023-04-05T06:19:31.939Z,0.00
2023-04-05T06:22:00.790Z,0.06
2023-04-05T06:24:31.703Z,0.17
2023-04-05T06:26:58.913Z,0.33
2023-04-05T06:29:25.997Z,0.38
2023-04-05T06:31:52.912Z,0.46
2023-04-05T06:34:19.714Z,0.55
2023-04-05T06:36:46.690Z,0.79
2023-04-05T06:39:14.457Z,0.96
2023-04-05T06:41:41.147Z,1.09
2023-04-05T06:44:07.854Z,1.04
2023-04-05T06:46:34.515Z,1.15
2023-04-05T06:49:03.772Z,1.26
2023-04-05T06:51:30.946Z,1.39
2023-04-05T06:53:57.578Z,1.46
2023-04-05T06:56:24.244Z,1.43
2023-04-05T06:58:51.249Z,1.67
2023-04-05T07:01:17.967Z,1.86
2023-04-05T07:03:44.611Z,1.84
2023-04-05T07:06:11.946Z,1.65
2023-04-05T07:08:38.558Z,1.83
2023-04-05T07:11:05.866Z,2.01
2023-04-05T07:13:32.544Z,2.12
2023-04-05T07:16:03.204Z,2.13
2023-04-05T07:18:30.185Z,2.11
2023-04-05T07:21:02.106Z,2.10
2023-04-05T07:23:29.128Z,1.99
2023-04-05T07:26:00.596Z,2.17
2023-04-05T07:28:27.254Z,2.51
2023-04-05T07:30:53.902Z,2.50
2023-04-05T07:33:21.030Z,2.49
2023-04-05T07:35:53.501Z,2.36
2023-04-05T07:38:21.356Z,2.43
2023-04-05T07:40:49.430Z,2.28
2023-04-05T07:43:16.712Z,2.22
2023-04-05T07:45:43.354Z,2.31
2023-04-05T07:48:10.153Z,2.26
2023-04-05T07:50:39.831Z,2.07
2023-04-05T07:53:08.191Z,2.16
2023-04-05T07:55:37.911Z,2.40
2023-04-05T07:58:04.576Z,2.40
2023-04-05T08:00:31.508Z,2.39
2023-04-05T08:03:01.813Z,2.52
2023-04-05T08:05:29.095Z,2.67
2023-04-05T08:07:58.070Z,2.84
2023-04-05T08:10:25.515Z,3.15
2023-04-05T08:12:52.177Z,3.10
2023-04-05T08:15:18.794Z,3.20
2023-04-05T08:17:45.473Z,3.19
2023-04-05T08:20:12.573Z,3.29
2023-04-05T08:22:39.214Z,3.42
2023-04-05T08:25:08.636Z,3.37
2023-04-05T08:27:36.282Z,3.36
2023-04-05T08:30:03.052Z,3.46
2023-04-05T08:32:29.839Z,3.55
2023-04-05T08:34:56.546Z,3.46
2023-04-05T08:37:23.233Z,3.18
2023-04-05T08:39:49.928Z,3.22
2023-04-05T08:42:29.440Z,3.24
2023-04-05T08:44:57.643Z,3.30
2023-04-05T08:47:24.436Z,3.34
2023-04-05T08:49:51.215Z,3.60
2023-04-05T08:52:18.613Z,3.67
2023-04-05T08:54:45.223Z,3.71
2023-04-05T08:57:12.128Z,3.73
2023-04-05T08:59:41.110Z,3.53
2023-04-05T10:00:19.499Z,3.42
2023-04-05T10:02:49.462Z,3.35
2023-04-05T10:05:16.269Z,3.31
2023-04-05T10:07:46.293Z,2.70
2023-04-05T10:10:13.552Z,2.83
2023-04-05T10:12:47.114Z,2.85
2023-04-05T10:15:16.714Z,3.07
2023-04-05T10:18:00.688Z,3.16
2023-04-05T10:20:28.774Z,3.21
2023-04-05T10:22:55.423Z,3.42
2023-04-05T10:25:28.480Z,3.38
2023-04-05T10:27:56.976Z,3.24
2023-04-05T10:30:24.942Z,3.17
2023-04-05T10:33:32.738Z,3.04
2023-04-05T10:36:02.602Z,3.20
2023-04-05T10:38:30.060Z,3.30
2023-04-05T10:41:10.002Z,3.37
2023-04-05T10:43:38.043Z,3.39
2023-04-05T10:46:06.986Z,3.48
2023-04-05T10:48:42.709Z,3.53
2023-04-05T10:51:10.169Z,3.56
2023-04-05T10:53:37.653Z,3.77
2023-04-05T10:56:04.725Z,3.73
2023-04-05T10:58:32.034Z,3.68
2023-04-05T11:00:59.441Z,3.62
2023-04-05T11:03:44.906Z,3.78
2023-04-05T11:06:17.810Z,4.00
2023-04-05T11:08:46.803Z,3.92
2023-04-05T11:11:17.651Z,3.87
2023-04-05T11:13:57.074Z,3.89
2023-04-05T11:16:38.694Z,3.88
2023-04-05T11:19:05.319Z,4.06
2023-04-05T11:21:32.109Z,4.05
2023-04-05T11:24:04.306Z,4.41
2023-04-05T11:26:32.191Z,4.48
2023-04-05T11:28:59.326Z,4.59
2023-04-05T11:31:28.894Z,4.71
2023-04-05T11:33:59.425Z,4.95
2023-04-05T11:36:35.327Z,5.04
2023-04-05T11:39:21.263Z,5.58
2023-04-05T11:42:29.116Z,5.99
2023-04-05T11:44:57.059Z,6.52
2023-04-05T11:47:23.836Z,6.56
2023-04-05T11:49:51.221Z,6.71
2023-04-05T11:52:19.878Z,6.76
2023-04-05T11:54:46.862Z,6.89
2023-04-05T11:57:21.363Z,6.64
2023-04-05T11:59:50.026Z,6.38
2023-04-05T12:02:17.048Z,6.50
2023-04-05T12:04:43.756Z,6.60
2023-04-05T12:07:18.130Z,6.80
2023-04-05T12:10:04.706Z,7.39
2023-04-05T12:12:42.001Z,6.75
2023-04-05T12:15:11.172Z,7.03
2023-04-05T12:17:41.311Z,7.15
2023-04-05T12:20:12.053Z,7.30
2023-04-05T12:22:39.218Z,6.90
2023-04-05T12:25:06.382Z,6.82
2023-04-05T12:27:33.083Z,6.50
2023-04-05T12:30:09.247Z,6.52
2023-04-05T12:32:43.291Z,6.38
2023-04-05T12:35:15.674Z,6.27
2023-04-05T12:37:42.517Z,6.38
2023-04-05T12:40:10.005Z,6.37
2023-04-05T12:42:38.565Z,6.40
2023-04-05T12:45:07.136Z,6.30
2023-04-05T12:47:35.758Z,5.98
2023-04-05T12:50:16.526Z,6.05
2023-04-05T12:53:08.831Z,5.60
2023-04-05T12:55:44.538Z,6.10
2023-04-05T12:58:11.493Z,6.17
2023-04-05T13:00:38.117Z,6.18
2023-04-05T13:03:04.866Z,6.32
2023-04-05T13:05:31.769Z,6.47
2023-04-05T13:07:58.885Z,6.57
2023-04-05T13:10:26.106Z,6.53
2023-04-05T13:12:53.018Z,6.68
2023-04-05T13:15:19.808Z,6.82
2023-04-05T13:17:52.797Z,7.03
2023-04-05T13:20:19.434Z,7.21
2023-04-05T13:22:46.556Z,7.49
2023-04-05T13:25:15.473Z,7.56
2023-04-05T13:27:42.289Z,7.68
2023-04-05T13:30:09.630Z,7.87
2023-04-05T13:32:36.489Z,7.97
2023-04-05T13:35:03.185Z,7.90
2023-04-05T13:37:29.853Z,7.89
2023-04-05T13:39:56.605Z,7.41
2023-04-05T13:42:24.019Z,7.63
2023-04-05T13:44:50.761Z,7.78
2023-04-05T13:47:17.539Z,8.05
2023-04-05T13:49:44.177Z,8.04
2023-04-05T13:52:11.272Z,8.05
2023-04-05T13:54:37.895Z,8.06
2023-04-05T13:57:04.876Z,7.83
2023-04-05T13:59:31.709Z,7.21
2023-04-05T14:01:58.459Z,7.50
2023-04-05T14:04:27.921Z,7.58
2023-04-05T14:06:54.549Z,7.54
2023-04-05T14:09:21.273Z,7.66
2023-04-05T14:11:47.891Z,7.45
2023-04-05T14:14:14.645Z,7.08
2023-04-05T14:16:41.307Z,7.32
2023-04-05T14:19:07.945Z,7.66
2023-04-05T14:21:34.675Z,7.69
2023-04-05T14:24:03.438Z,8.12
2023-04-05T14:26:30.261Z,8.09
2023-04-05T14:28:57.026Z,8.28
2023-04-05T14:31:25.549Z,8.04
2023-04-05T14:33:52.490Z,8.04
2023-04-05T14:36:19.229Z,7.96
2023-04-05T14:38:45.964Z,7.98
2023-04-05T14:41:12.743Z,7.83
2023-04-05T14:43:39.516Z,7.98
2023-04-05T14:46:06.256Z,7.84
2023-04-05T14:48:34.038Z,7.81
2023-04-05T14:51:01.053Z,7.66
2023-04-05T14:53:29.921Z,7.62
2023-04-05T14:55:56.784Z,7.45
2023-04-05T14:58:23.480Z,7.18
2023-04-05T15:00:50.639Z,6.93
2023-04-05T15:03:19.742Z,6.89
2023-04-05T15:05:47.287Z,6.74
2023-04-05T15:08:14.921Z,6.59
2023-04-05T15:10:44.911Z,6.86
2023-04-05T15:13:11.959Z,6.81
2023-04-05T15:15:39.255Z,6.83
2023-04-05T15:18:07.781Z,6.56
2023-04-05T15:20:36.118Z,6.76
2023-04-05T15:23:03.061Z,6.77
2023-04-05T15:25:29.920Z,6.68
2023-04-05T15:27:59.725Z,6.58
2023-04-05T15:30:28.558Z,6.38
2023-04-05T15:32:55.724Z,6.51
2023-04-05T15:35:22.412Z,6.75
2023-04-05T15:37:49.131Z,6.76
2023-04-05T15:40:16.082Z,6.76
2023-04-05T15:42:42.848Z,6.70
2023-04-05T15:45:10.218Z,6.48
2023-04-05T15:47:37.098Z,6.64
2023-04-05T15:50:04.288Z,6.60
2023-04-05T15:52:31.239Z,6.45
2023-04-05T15:54:58.535Z,6.29
2023-04-05T15:57:25.292Z,6.25
2023-04-05T15:59:52.925Z,6.29
2023-04-05T16:02:20.023Z,6.21
2023-04-05T16:04:46.650Z,6.13
2023-04-05T16:07:13.316Z,6.02
2023-04-05T16:09:40.109Z,6.12
2023-04-05T16:12:07.039Z,6.06
2023-04-05T16:14:34.246Z,6.10
2023-04-05T16:17:01.993Z,6.32
2023-04-05T16:19:28.780Z,6.12
2023-04-05T16:21:55.990Z,5.95
2023-04-05T16:24:22.777Z,5.98
2023-04-05T16:26:49.414Z,5.98
2023-04-05T16:29:18.301Z,5.96
2023-04-05T16:31:47.376Z,5.79
2023-04-05T16:34:14.598Z,5.83
2023-04-05T16:36:41.864Z,5.80
2023-04-05T16:39:08.909Z,5.57
2023-04-05T16:41:36.365Z,5.65
2023-04-05T16:44:03.729Z,5.74
2023-04-05T16:46:32.233Z,5.64
2023-04-05T16:49:02.158Z,5.56
2023-04-05T16:51:28.996Z,5.79
2023-04-05T16:53:55.646Z,5.82
2023-04-05T16:56:23.412Z,5.71
2023-04-05T16:58:50.113Z,5.78
2023-04-05T17:01:16.803Z,5.83
2023-04-05T17:03:47.066Z,5.78
2023-04-05T17:06:14.855Z,5.69
2023-04-05T17:08:41.909Z,5.70
2023-04-05T17:11:08.582Z,5.52
2023-04-05T17:13:35.305Z,5.44
2023-04-05T17:16:02.046Z,5.59
2023-04-05T17:18:28.867Z,5.58
2023-04-05T17:20:56.714Z,5.42
2023-04-05T17:23:24.232Z,5.45
2023-04-05T17:25:50.918Z,5.30
2023-04-05T17:28:17.593Z,5.12
2023-04-05T17:30:44.363Z,5.25
2023-04-05T17:33:11.173Z,4.97
2023-04-05T17:35:38.107Z,5.16
2023-04-05T17:38:04.903Z,5.08
2023-04-05T17:40:31.597Z,5.02
2023-04-05T17:42:58.294Z,4.88
2023-04-05T17:45:25.035Z,4.96
2023-04-05T17:47:51.939Z,4.88
2023-04-05T17:50:18.845Z,4.99
2023-04-05T17:52:46.626Z,4.82
2023-04-05T17:55:13.255Z,5.01
2023-04-05T17:57:40.009Z,4.78
2023-04-05T18:00:07.498Z,4.88
2023-04-05T18:02:37.107Z,4.58
2023-04-05T18:05:04.668Z,4.52
2023-04-05T18:07:31.279Z,4.50
2023-04-05T18:09:57.974Z,4.55
2023-04-05T18:12:24.697Z,4.48
2023-04-05T18:14:51.543Z,4.45
2023-04-05T18:17:18.513Z,4.40
2023-04-05T18:19:45.248Z,4.59
2023-04-05T18:22:12.032Z,4.65
2023-04-05T18:24:38.747Z,4.42
2023-04-05T18:27:05.417Z,4.60
2023-04-05T18:29:37.727Z,4.51
2023-04-05T18:32:05.691Z,4.52
2023-04-05T18:34:32.627Z,4.49
2023-04-05T18:36:59.259Z,4.41
2023-04-05T18:39:27.613Z,4.34
2023-04-05T18:41:54.957Z,4.25
2023-04-05T18:44:21.680Z,4.12
2023-04-05T18:46:49.712Z,4.26
2023-04-05T18:49:18.274Z,4.08
2023-04-05T18:51:45.978Z,4.10
2023-04-05T18:54:13.859Z,3.88
2023-04-05T18:56:40.902Z,3.98
2023-04-05T18:59:07.721Z,3.97
2023-04-05T19:01:34.686Z,3.85
2023-04-05T19:04:01.452Z,3.90
2023-04-05T19:06:28.184Z,3.78
2023-04-05T19:08:54.893Z,3.73
2023-04-05T19:11:22.060Z,3.67
2023-04-05T19:13:48.776Z,3.66
2023-04-05T19:16:17.464Z,3.68
2023-04-05T19:18:44.575Z,3.65
2023-04-05T19:21:11.254Z,3.72
2023-04-05T19:23:38.705Z,3.49
2023-04-05T19:26:05.646Z,3.47
2023-04-05T19:28:32.362Z,3.56
2023-04-05T19:30:59.037Z,3.42
2023-04-05T19:33:26.247Z,3.31
2023-04-05T19:35:53.044Z,3.39
2023-04-05T19:38:21.407Z,3.38
2023-04-05T19:40:48.140Z,3.31
2023-04-05T19:43:15.159Z,3.38
2023-04-05T19:45:41.903Z,3.57
2023-04-05T19:48:28.446Z,3.61
2023-04-05T19:50:56.748Z,3.51
2023-04-05T19:53:49.348Z,3.51
2023-04-05T19:56:25.642Z,3.31
2023-04-05T19:59:03.736Z,3.42
2023-04-05T20:01:35.985Z,3.33
2023-04-05T20:04:16.334Z,3.32
2023-04-05T20:06:47.559Z,3.34
2023-04-05T20:09:18.068Z,3.23
2023-04-05T20:11:55.961Z,3.29
2023-04-05T20:14:27.830Z,3.27
2023-04-05T20:16:56.049Z,3.24
2023-04-05T20:19:28.354Z,3.23
2023-04-05T20:21:57.440Z,3.20
2023-04-05T20:24:25.461Z,3.16
2023-04-05T20:26:55.045Z,3.36
2023-04-05T20:29:26.051Z,3.20
2023-04-05T20:31:53.362Z,3.29
2023-04-05T20:34:24.278Z,3.24
2023-04-05T20:36:52.988Z,3.27
2023-04-05T20:39:19.742Z,3.30
2023-04-05T20:41:46.627Z,3.29
2023-04-05T20:44:13.368Z,3.26
2023-04-05T20:46:40.058Z,3.25
2023-04-05T20:49:07.567Z,3.26
2023-04-05T20:51:34.826Z,3.32
2023-04-05T20:54:01.586Z,3.28
2023-04-05T20:56:28.358Z,3.19
2023-04-05T20:58:55.959Z,3.23
2023-04-05T21:01:22.913Z,3.22
2023-04-05T21:03:49.764Z,3.15
2023-04-05T21:06:16.675Z,3.37
2023-04-05T21:08:46.257Z,3.22
2023-04-05T21:11:16.037Z,3.24
2023-04-05T21:13:43.549Z,3.34
2023-04-05T21:16:10.595Z,3.19
2023-04-05T21:18:38.502Z,3.17
2023-04-05T21:21:05.410Z,3.28
2023-04-05T21:23:34.149Z,3.31
2023-04-05T21:26:01.608Z,3.26
2023-04-05T21:28:28.499Z,3.20
2023-04-05T21:30:56.791Z,3.18
2023-04-05T21:33:23.594Z,3.11
2023-04-05T21:35:51.012Z,3.00
2023-04-05T21:38:19.268Z,3.01
2023-04-05T21:40:48.490Z,3.00
2023-04-05T21:43:15.122Z,3.10
2023-04-05T21:45:41.824Z,3.04
2023-04-05T21:48:08.704Z,3.07
2023-04-05T21:50:35.593Z,3.19
2023-04-05T21:53:02.487Z,3.13
2023-04-05T21:55:29.325Z,3.06
2023-04-05T21:57:56.042Z,3.05
2023-04-05T22:00:22.813Z,3.10
2023-04-05T22:02:49.427Z,3.18
2023-04-05T22:05:29.650Z,3.14
2023-04-05T22:08:03.486Z,3.11
2023-04-05T22:10:30.301Z,2.99
2023-04-05T22:12:59.004Z,3.03
2023-04-05T22:15:25.882Z,3.03
2023-04-05T22:17:53.783Z,2.94
2023-04-05T22:20:20.453Z,2.94
2023-04-05T22:22:47.669Z,3.02
2023-04-05T22:25:14.396Z,2.90
2023-04-05T22:27:41.272Z,2.93
2023-04-05T22:30:08.574Z,2.94
2023-04-05T22:32:35.713Z,2.89
2023-04-05T22:35:04.191Z,2.91
2023-04-05T22:37:35.523Z,2.90
2023-04-05T22:40:04.853Z,2.93
2023-04-05T22:42:31.683Z,2.85
2023-04-05T22:44:58.575Z,3.03
2023-04-05T22:47:29.195Z,2.91
2023-04-05T22:49:55.954Z,2.98
2023-04-05T22:52:23.541Z,2.94
2023-04-05T22:54:50.601Z,2.90
2023-04-05T22:57:20.591Z,2.88
2023-04-05T22:59:50.677Z,2.83
2023-04-05T23:02:17.973Z,2.83
2023-04-05T23:04:44.685Z,2.81
2023-04-05T23:07:11.336Z,2.82
2023-04-05T23:09:37.994Z,2.79
2023-04-05T23:12:04.746Z,2.88
2023-04-05T23:14:31.461Z,2.82
2023-04-05T23:16:58.142Z,2.87
2023-04-05T23:19:25.139Z,2.86
2023-04-05T23:21:51.870Z,2.80
2023-04-05T23:24:18.556Z,2.85
2023-04-05T23:26:45.594Z,2.76
2023-04-05T23:29:14.122Z,2.73
2023-04-05T23:31:40.843Z,2.71
2023-04-05T23:34:07.522Z,2.71
2023-04-05T23:36:34.175Z,2.75
2023-04-05T23:39:01.014Z,2.71
2023-04-05T23:41:27.724Z,2.78
2023-04-05T23:43:54.436Z,2.71
2023-04-05T23:48:53.504Z,2.51
2023-04-05T23:51:20.302Z,2.49
2023-04-05T23:53:47.020Z,2.56
2023-04-05T23:56:15.717Z,2.53
2023-04-05T23:58:42.396Z,2.39
